createdAt,value
2018-01-30T00:01:05.359Z,11.43
2018-01-30T00:03:32.847Z,12.35
2018-01-30T00:06:00.336Z,9.77
2018-01-30T00:08:27.835Z,9.60
2018-01-30T00:10:55.338Z,9.40
2018-01-30T00:13:22.843Z,11.35
2018-01-30T00:15:50.347Z,11.27
2018-01-30T00:18:17.826Z,11.85
2018-01-30T00:20:45.388Z,8.23
2018-01-30T00:23:12.879Z,7.00
2018-01-30T00:25:40.353Z,7.30
2018-01-30T00:28:07.860Z,7.78
2018-01-30T00:30:35.363Z,11.57
2018-01-30T00:33:02.883Z,10.38
2018-01-30T00:35:30.363Z,6.87
2018-01-30T00:37:57.864Z,9.50
2018-01-30T00:40:25.340Z,8.30
2018-01-30T00:42:52.812Z,8.65
2018-01-30T00:45:20.357Z,8.70
2018-01-30T00:47:47.865Z,13.60
2018-01-30T00:50:15.371Z,9.60
2018-01-30T00:52:42.846Z,12.15
2018-01-30T00:55:10.332Z,7.47
2018-01-30T00:57:37.823Z,10.13
2018-01-30T01:00:05.317Z,8.27
2018-01-30T01:02:32.802Z,8.65
2018-01-30T01:05:00.308Z,13.70
2018-01-30T01:07:27.821Z,9.48
2018-01-30T01:09:55.299Z,10.23
2018-01-30T01:12:22.795Z,10.65
2018-01-30T01:14:50.267Z,8.10
2018-01-30T01:17:17.751Z,8.52
2018-01-30T01:19:45.236Z,9.68
2018-01-30T01:22:12.703Z,8.00
2018-01-30T01:24:40.195Z,10.38
2018-01-30T01:27:07.675Z,8.52
2018-01-30T01:29:35.159Z,11.20
2018-01-30T01:32:02.601Z,11.20
2018-01-30T01:34:30.183Z,8.90
2018-01-30T01:36:57.651Z,7.18
2018-01-30T01:39:25.124Z,8.60
2018-01-30T01:41:52.603Z,8.18
2018-01-30T01:44:20.084Z,5.87
2018-01-30T01:46:47.563Z,8.60
2018-01-30T01:49:15.075Z,7.80
2018-01-30T01:51:42.556Z,6.47
2018-01-30T01:54:10.039Z,10.20
2018-01-30T01:56:37.633Z,9.55
2018-01-30T01:59:05.111Z,12.05
2018-01-30T02:01:32.590Z,9.52
2018-01-30T02:04:00.075Z,10.15
2018-01-30T02:06:27.567Z,7.75
2018-01-30T02:08:55.078Z,9.52
2018-01-30T02:11:22.573Z,13.10
2018-01-30T02:13:50.095Z,10.43
2018-01-30T02:16:17.574Z,6.43
2018-01-30T02:18:45.053Z,8.35
2018-01-30T02:21:12.559Z,11.02
2018-01-30T02:23:40.054Z,7.82
2018-01-30T02:26:07.553Z,7.85
2018-01-30T02:28:35.043Z,6.82
2018-01-30T02:31:02.545Z,11.68
2018-01-30T02:33:30.042Z,10.38
2018-01-30T02:35:57.525Z,9.60
2018-01-30T02:38:25.017Z,13.05
2018-01-30T02:40:52.516Z,9.07
2018-01-30T02:43:19.999Z,7.97
2018-01-30T02:45:47.577Z,8.82
2018-01-30T02:48:15.075Z,5.53
2018-01-30T02:50:42.613Z,11.32
2018-01-30T02:53:10.089Z,7.97
2018-01-30T02:55:37.564Z,5.55
2018-01-30T02:58:05.048Z,8.18
2018-01-30T03:00:32.551Z,8.63
2018-01-30T03:03:00.015Z,7.25
2018-01-30T03:05:27.499Z,5.43
2018-01-30T03:07:54.978Z,6.45
2018-01-30T03:10:22.471Z,11.57
2018-01-30T03:12:49.943Z,9.45
2018-01-30T03:15:17.434Z,7.20
2018-01-30T03:17:44.922Z,6.20
2018-01-30T03:20:12.424Z,6.10
2018-01-30T03:22:40.074Z,5.87
2018-01-30T03:25:07.555Z,5.80
2018-01-30T03:27:35.034Z,5.53
2018-01-30T03:30:02.543Z,8.13
2018-01-30T03:32:30.030Z,8.05
2018-01-30T03:34:57.513Z,6.57
2018-01-30T03:37:24.994Z,5.75
2018-01-30T03:39:52.476Z,7.72
2018-01-30T03:42:19.954Z,6.95
2018-01-30T03:44:47.423Z,8.98
2018-01-30T03:47:14.924Z,7.22
2018-01-30T03:49:42.409Z,6.40
2018-01-30T03:52:09.888Z,6.60
2018-01-30T03:54:37.358Z,6.45
2018-01-30T03:57:04.844Z,8.20
2018-01-30T03:59:32.334Z,8.70
2018-01-30T04:01:59.807Z,7.12
2018-01-30T04:04:27.271Z,7.87
2018-01-30T04:06:54.750Z,7.72
2018-01-30T04:09:22.214Z,8.98
2018-01-30T04:11:49.669Z,5.55
2018-01-30T04:14:17.168Z,8.57
2018-01-30T04:16:44.648Z,6.00
2018-01-30T04:19:12.147Z,7.75
2018-01-30T04:21:39.617Z,8.20
2018-01-30T04:24:07.090Z,7.25
2018-01-30T04:26:34.580Z,8.63
2018-01-30T04:29:02.067Z,9.68
2018-01-30T04:31:29.536Z,9.23
2018-01-30T04:33:57.066Z,6.70
2018-01-30T04:36:24.584Z,6.62
2018-01-30T04:38:52.067Z,5.45
2018-01-30T04:41:19.539Z,5.03
2018-01-30T04:43:47.022Z,5.97
2018-01-30T04:46:14.492Z,9.10
2018-01-30T04:48:41.971Z,5.32
2018-01-30T04:51:09.455Z,6.43
2018-01-30T04:53:36.939Z,10.25
2018-01-30T04:56:04.445Z,4.87
2018-01-30T04:58:31.958Z,7.85
2018-01-30T05:00:59.430Z,6.30
2018-01-30T05:03:26.914Z,6.78
2018-01-30T05:05:54.403Z,6.70
2018-01-30T05:08:21.852Z,6.55
2018-01-30T05:10:49.351Z,9.10
2018-01-30T05:13:16.816Z,7.18
2018-01-30T05:15:44.338Z,11.40
2018-01-30T05:18:11.834Z,13.93
2018-01-30T05:20:39.306Z,9.40
2018-01-30T05:23:06.813Z,17.17
2018-01-30T05:25:34.307Z,14.82
2018-01-30T05:28:01.780Z,11.12
2018-01-30T05:30:29.279Z,7.28
2018-01-30T05:32:56.728Z,10.38
2018-01-30T05:35:24.290Z,8.93
2018-01-30T05:37:51.778Z,8.90
2018-01-30T05:40:20.122Z,9.27
2018-01-30T05:42:47.595Z,7.78
2018-01-30T05:45:15.079Z,4.82
2018-01-30T05:47:42.572Z,5.93
2018-01-30T05:50:10.059Z,6.00
2018-01-30T05:52:37.544Z,10.20
2018-01-30T05:55:05.010Z,5.45
2018-01-30T05:57:32.495Z,10.80
2018-01-30T06:00:00.057Z,8.68
2018-01-30T06:02:27.530Z,7.87
2018-01-30T06:04:55.007Z,6.35
2018-01-30T06:07:22.493Z,8.07
2018-01-30T06:09:49.966Z,9.73
2018-01-30T06:12:17.445Z,7.45
2018-01-30T06:14:44.932Z,7.62
2018-01-30T06:17:12.431Z,6.43
2018-01-30T06:19:39.894Z,6.53
2018-01-30T06:22:07.422Z,12.02
2018-01-30T06:24:34.939Z,8.13
2018-01-30T06:27:02.423Z,9.18
2018-01-30T06:29:30.752Z,7.50
2018-01-30T06:31:58.259Z,7.90
2018-01-30T06:34:25.727Z,7.50
2018-01-30T06:36:53.211Z,9.10
2018-01-30T06:39:20.701Z,7.60
2018-01-30T06:41:48.179Z,7.05
2018-01-30T06:44:15.669Z,6.65
2018-01-30T06:46:43.170Z,11.23
2018-01-30T06:49:10.640Z,8.15
2018-01-30T06:51:39.318Z,8.77
2018-01-30T06:54:06.802Z,5.00
2018-01-30T06:56:34.307Z,6.22
2018-01-30T06:59:01.810Z,8.15
2018-01-30T07:01:29.279Z,11.50
2018-01-30T07:03:56.754Z,6.45
2018-01-30T07:06:24.230Z,9.65
2018-01-30T07:08:51.723Z,7.25
2018-01-30T07:11:19.215Z,8.20
2018-01-30T07:13:46.696Z,7.30
2018-01-30T07:16:14.195Z,6.80
2018-01-30T07:18:41.686Z,8.70
2018-01-30T07:21:09.166Z,6.25
2018-01-30T07:23:36.649Z,8.25
2018-01-30T07:26:04.160Z,9.15
2018-01-30T07:28:31.653Z,6.65
2018-01-30T07:30:59.151Z,12.73
2018-01-30T07:33:26.640Z,9.30
2018-01-30T07:35:54.115Z,9.52
2018-01-30T07:38:21.664Z,7.30
2018-01-30T07:40:49.155Z,9.65
2018-01-30T07:43:16.644Z,8.13
2018-01-30T07:45:44.143Z,10.40
2018-01-30T07:48:11.632Z,6.07
2018-01-30T07:50:39.149Z,13.48
2018-01-30T07:53:06.632Z,9.38
2018-01-30T07:55:34.107Z,11.00
2018-01-30T07:58:01.619Z,13.32
2018-01-30T08:00:29.488Z,11.23
2018-01-30T08:02:56.987Z,6.53
2018-01-30T08:05:24.458Z,6.80
2018-01-30T08:07:51.939Z,9.20
2018-01-30T08:10:19.413Z,8.30
2018-01-30T08:12:46.892Z,8.52
2018-01-30T08:15:14.363Z,10.73
2018-01-30T08:17:41.847Z,11.70
2018-01-30T08:20:09.360Z,10.07
2018-01-30T08:22:36.846Z,14.52
2018-01-30T08:25:04.398Z,7.50
2018-01-30T08:27:31.889Z,12.20
2018-01-30T08:29:59.387Z,7.18
2018-01-30T08:32:26.899Z,7.12
2018-01-30T08:34:54.461Z,10.65
2018-01-30T08:37:21.953Z,7.25
2018-01-30T08:39:49.443Z,7.45
2018-01-30T08:42:17.005Z,9.20
2018-01-30T08:44:44.540Z,9.13
2018-01-30T08:47:12.049Z,5.50
2018-01-30T08:49:39.543Z,9.68
2018-01-30T08:52:07.047Z,11.95
2018-01-30T08:54:34.529Z,7.85
2018-01-30T08:57:02.023Z,8.43
2018-01-30T08:59:29.498Z,8.10
2018-01-30T09:01:57.199Z,12.52
2018-01-30T09:04:24.698Z,8.38
2018-01-30T09:06:52.186Z,10.23
2018-01-30T09:09:19.756Z,11.50
2018-01-30T09:11:47.282Z,7.18
2018-01-30T09:14:14.782Z,7.80
2018-01-30T09:16:42.303Z,11.57
2018-01-30T09:19:09.867Z,7.60
2018-01-30T09:21:37.352Z,8.88
2018-01-30T09:24:04.795Z,9.45
2018-01-30T09:26:32.322Z,6.57
2018-01-30T09:28:59.807Z,8.15
2018-01-30T09:31:27.287Z,10.00
2018-01-30T09:33:54.827Z,11.18
2018-01-30T09:36:22.314Z,8.73
2018-01-30T09:38:49.806Z,12.73
2018-01-30T09:41:17.279Z,8.10
2018-01-30T09:43:44.766Z,10.52
2018-01-30T09:46:12.235Z,14.75
2018-01-30T09:48:39.737Z,26.10
2018-01-30T09:51:07.215Z,20.40
2018-01-30T09:53:34.775Z,15.90
2018-01-30T09:56:02.256Z,9.15
2018-01-30T09:58:29.764Z,9.73
2018-01-30T10:00:57.243Z,9.02
2018-01-30T10:03:24.740Z,8.50
2018-01-30T10:05:52.233Z,9.20
2018-01-30T10:08:19.720Z,12.77
2018-01-30T10:10:47.215Z,13.60
2018-01-30T10:13:14.705Z,11.77
2018-01-30T10:15:42.196Z,11.93
2018-01-30T10:18:09.698Z,9.57
2018-01-30T10:20:37.238Z,11.70
2018-01-30T10:23:04.742Z,11.48
2018-01-30T10:25:32.223Z,10.25
2018-01-30T10:27:59.703Z,10.93
2018-01-30T10:30:27.179Z,9.20
2018-01-30T10:32:54.687Z,8.50
2018-01-30T10:35:22.171Z,8.43
2018-01-30T10:37:49.656Z,9.27
2018-01-30T10:40:17.178Z,9.95
2018-01-30T10:42:44.671Z,11.00
2018-01-30T10:45:12.188Z,16.15
2018-01-30T10:47:39.704Z,10.38
2018-01-30T10:50:07.245Z,10.20
2018-01-30T10:52:34.715Z,10.77
2018-01-30T10:55:02.223Z,14.15
2018-01-30T10:57:29.709Z,8.23
2018-01-30T10:59:57.213Z,13.00
2018-01-30T11:02:24.698Z,11.70
2018-01-30T11:04:52.202Z,13.88
2018-01-30T11:07:19.689Z,11.88
2018-01-30T11:09:47.183Z,10.27
2018-01-30T11:12:14.674Z,10.57
2018-01-30T11:14:42.211Z,13.05
2018-01-30T11:17:09.696Z,7.82
2018-01-30T11:19:37.196Z,12.37
2018-01-30T11:22:04.696Z,10.13
2018-01-30T11:24:32.230Z,11.57
2018-01-30T11:26:59.725Z,10.05
2018-01-30T11:29:27.229Z,10.70
2018-01-30T11:31:54.763Z,12.37
2018-01-30T11:34:22.250Z,13.57
2018-01-30T11:36:49.750Z,10.70
2018-01-30T11:39:17.243Z,10.20
2018-01-30T11:41:44.811Z,9.32
2018-01-30T11:44:12.291Z,8.93
2018-01-30T11:46:39.780Z,13.30
2018-01-30T11:49:07.336Z,13.82
2018-01-30T11:51:34.830Z,9.93
2018-01-30T11:54:02.313Z,8.10
2018-01-30T11:56:29.836Z,7.45
2018-01-30T11:58:57.343Z,12.43
2018-01-30T12:01:24.820Z,9.80
2018-01-30T12:03:52.321Z,8.35
2018-01-30T12:06:19.810Z,7.62
2018-01-30T12:08:47.298Z,6.90
2018-01-30T12:11:14.799Z,9.63
2018-01-30T12:13:42.319Z,5.50
2018-01-30T12:16:09.840Z,11.88
2018-01-30T12:18:37.340Z,10.07
2018-01-30T12:21:04.829Z,7.43
2018-01-30T12:23:32.328Z,12.68
2018-01-30T12:25:59.833Z,6.55
2018-01-30T12:28:27.335Z,11.30
2018-01-30T12:30:54.868Z,11.90
2018-01-30T12:33:22.338Z,5.87
2018-01-30T12:35:49.840Z,8.15
2018-01-30T12:38:17.333Z,9.23
2018-01-30T12:40:44.851Z,10.38
2018-01-30T12:43:12.374Z,9.23
2018-01-30T12:45:39.867Z,11.02
2018-01-30T12:48:07.418Z,10.70
2018-01-30T12:50:34.907Z,7.78
2018-01-30T12:53:02.423Z,10.32
2018-01-30T12:55:29.933Z,13.77
2018-01-30T12:57:57.458Z,12.60
2018-01-30T13:00:24.950Z,10.60
2018-01-30T13:02:52.455Z,6.05
2018-01-30T13:05:19.939Z,9.07
2018-01-30T13:07:47.438Z,6.30
2018-01-30T13:10:14.941Z,7.68
2018-01-30T13:12:42.450Z,5.97
2018-01-30T13:15:09.929Z,8.45
2018-01-30T13:17:37.411Z,6.57
2018-01-30T13:20:04.896Z,3.50
2018-01-30T13:22:32.427Z,4.22
2018-01-30T13:24:59.907Z,4.18
2018-01-30T13:27:27.507Z,2.95
2018-01-30T13:29:54.991Z,4.45
2018-01-30T13:32:22.471Z,4.72
2018-01-30T13:34:49.958Z,2.78
2018-01-30T13:37:17.572Z,3.25
2018-01-30T13:39:45.063Z,4.18
2018-01-30T13:42:12.579Z,5.60
2018-01-30T13:44:40.179Z,4.20
2018-01-30T13:47:07.706Z,3.42
2018-01-30T13:49:35.190Z,4.70
2018-01-30T13:52:02.710Z,3.60
2018-01-30T13:54:30.190Z,5.37
2018-01-30T13:56:57.671Z,6.12
2018-01-30T13:59:25.179Z,6.05
2018-01-30T14:01:52.672Z,5.82
2018-01-30T14:04:20.148Z,3.05
2018-01-30T14:06:47.656Z,7.72
2018-01-30T14:09:15.147Z,2.75
2018-01-30T14:11:42.635Z,9.98
2018-01-30T14:14:10.109Z,7.37
2018-01-30T14:16:37.607Z,4.60
2018-01-30T14:19:05.087Z,6.32
2018-01-30T14:21:32.600Z,6.00
2018-01-30T14:24:00.109Z,5.57
2018-01-30T14:26:27.596Z,5.15
2018-01-30T14:28:55.156Z,10.35
2018-01-30T14:31:22.634Z,10.82
2018-01-30T14:33:50.116Z,6.70
2018-01-30T14:36:17.631Z,6.78
2018-01-30T14:38:45.092Z,11.32
2018-01-30T14:41:12.611Z,8.27
2018-01-30T14:43:40.125Z,10.43
2018-01-30T14:46:07.643Z,10.77
2018-01-30T14:48:35.136Z,11.30
2018-01-30T14:51:02.607Z,8.95
2018-01-30T14:53:30.095Z,7.15
2018-01-30T14:55:57.580Z,6.60
2018-01-30T14:58:25.119Z,6.32
2018-01-30T15:00:52.637Z,9.90
2018-01-30T15:03:20.175Z,6.25
2018-01-30T15:05:47.752Z,10.00
2018-01-30T15:08:15.251Z,10.50
2018-01-30T15:10:42.754Z,7.80
2018-01-30T15:13:10.271Z,9.55
2018-01-30T15:15:38.876Z,7.03
2018-01-30T15:18:06.977Z,10.02
2018-01-30T15:20:34.486Z,9.63
2018-01-30T15:23:01.993Z,12.68
2018-01-30T15:25:29.482Z,7.80
2018-01-30T15:27:56.976Z,6.35
2018-01-30T15:30:24.534Z,5.20
2018-01-30T15:32:52.071Z,6.85
2018-01-30T15:35:19.566Z,5.68
2018-01-30T15:37:47.057Z,9.85
2018-01-30T15:40:14.555Z,8.57
2018-01-30T15:42:42.045Z,6.35
2018-01-30T15:45:09.547Z,9.57
2018-01-30T15:47:37.018Z,9.80
2018-01-30T15:50:04.540Z,6.55
2018-01-30T15:52:32.031Z,8.30
2018-01-30T15:54:59.550Z,7.87
2018-01-30T15:57:27.054Z,10.02
2018-01-30T15:59:54.600Z,8.48
2018-01-30T16:02:22.077Z,6.93
2018-01-30T16:04:49.568Z,9.00
2018-01-30T16:07:17.090Z,6.40
2018-01-30T16:09:44.571Z,8.07
2018-01-30T16:12:12.061Z,9.30
2018-01-30T16:14:39.563Z,8.93
2018-01-30T16:17:07.059Z,10.77
2018-01-30T16:19:34.546Z,8.80
2018-01-30T16:22:02.090Z,11.10
2018-01-30T16:24:29.576Z,7.60
2018-01-30T16:26:57.075Z,10.32
2018-01-30T16:29:24.672Z,8.77
2018-01-30T16:31:52.172Z,9.05
2018-01-30T16:34:19.695Z,10.80
2018-01-30T16:36:47.211Z,12.05
2018-01-30T16:39:14.737Z,10.05
2018-01-30T16:41:42.262Z,9.73
2018-01-30T16:44:09.781Z,10.18
2018-01-30T16:46:37.283Z,10.30
2018-01-30T16:49:04.774Z,10.40
2018-01-30T16:51:32.275Z,9.05
2018-01-30T16:53:59.760Z,13.23
2018-01-30T16:56:27.234Z,11.43
2018-01-30T16:58:54.868Z,8.73
2018-01-30T17:01:22.371Z,11.12
2018-01-30T17:03:49.873Z,9.02
2018-01-30T17:06:17.379Z,10.80
2018-01-30T17:08:44.957Z,11.10
2018-01-30T17:11:12.477Z,12.80
2018-01-30T17:13:40.005Z,12.95
2018-01-30T17:16:07.550Z,15.63
2018-01-30T17:18:35.090Z,13.13
2018-01-30T17:21:02.612Z,12.48
2018-01-30T17:23:30.138Z,13.57
2018-01-30T17:25:57.662Z,11.60
2018-01-30T17:28:25.223Z,14.52
2018-01-30T17:30:52.719Z,12.90
2018-01-30T17:33:20.203Z,28.12
2018-01-30T17:35:47.703Z,27.60
2018-01-30T17:38:15.310Z,26.55
2018-01-30T17:40:42.794Z,22.58
2018-01-30T17:43:11.164Z,22.98
2018-01-30T17:45:38.656Z,34.30
2018-01-30T17:48:06.155Z,27.45
2018-01-30T17:50:33.657Z,18.87
2018-01-30T17:53:01.165Z,16.42
2018-01-30T17:55:28.739Z,16.90
2018-01-30T17:57:56.219Z,15.38
2018-01-30T18:00:23.733Z,16.62
2018-01-30T18:02:51.259Z,17.17
2018-01-30T18:05:18.776Z,20.05
2018-01-30T18:07:46.283Z,16.05
2018-01-30T18:10:13.815Z,17.95
2018-01-30T18:12:41.317Z,21.05
2018-01-30T18:15:08.851Z,25.05
2018-01-30T18:17:36.385Z,21.92
2018-01-30T18:20:03.955Z,23.62
2018-01-30T18:22:31.465Z,13.25
2018-01-30T18:24:59.088Z,13.50
2018-01-30T18:27:26.599Z,16.10
2018-01-30T18:29:54.104Z,10.23
2018-01-30T18:32:21.596Z,4.45
2018-01-30T18:34:49.125Z,2.45
2018-01-30T18:37:16.664Z,2.92
2018-01-30T18:39:44.156Z,8.25
2018-01-30T18:42:11.665Z,3.45
2018-01-30T18:44:39.183Z,5.97
2018-01-30T18:47:07.253Z,5.45
2018-01-30T18:49:35.563Z,10.85
2018-01-30T18:52:04.966Z,3.65
2018-01-30T18:54:38.366Z,6.10
2018-01-30T18:57:06.232Z,5.32
2018-01-30T18:59:33.775Z,3.78
2018-01-30T19:02:01.379Z,7.72
2018-01-30T19:04:28.931Z,2.90
2018-01-30T19:06:56.611Z,3.75
2018-01-30T19:09:24.203Z,5.53
2018-01-30T19:11:51.732Z,5.72
2018-01-30T19:14:20.070Z,3.95
2018-01-30T19:16:47.661Z,7.25
2018-01-30T19:19:16.153Z,5.00
2018-01-30T19:21:44.200Z,6.07
2018-01-30T19:24:11.699Z,6.30
2018-01-30T19:26:39.240Z,9.07
2018-01-30T19:29:06.784Z,3.15
2018-01-30T19:31:34.288Z,5.40
2018-01-30T19:34:01.836Z,6.72
2018-01-30T19:36:29.356Z,7.87
2018-01-30T19:39:00.596Z,3.97
2018-01-30T19:41:28.115Z,1.92
2018-01-30T19:43:55.615Z,4.30
2018-01-30T19:46:23.179Z,2.87
2018-01-30T19:48:50.776Z,9.43
2018-01-30T19:51:18.277Z,10.63
2018-01-30T19:53:45.809Z,2.78
2018-01-30T19:56:13.332Z,5.32
2018-01-30T19:58:40.863Z,1.95
2018-01-30T20:01:08.409Z,6.28
2018-01-30T20:03:35.992Z,6.57
2018-01-30T20:06:03.501Z,6.78
2018-01-30T20:08:31.000Z,4.30
2018-01-30T20:10:58.506Z,9.93
2018-01-30T20:13:26.038Z,7.32
2018-01-30T20:15:53.524Z,8.57
2018-01-30T20:18:21.041Z,11.35
2018-01-30T20:20:48.558Z,9.63
2018-01-30T20:23:16.063Z,6.93
2018-01-30T20:25:43.551Z,6.53
2018-01-30T20:28:11.054Z,6.65
2018-01-30T20:30:38.610Z,8.73
2018-01-30T20:33:06.090Z,9.80
2018-01-30T20:35:33.587Z,14.10
2018-01-30T20:38:01.094Z,10.68
2018-01-30T20:40:28.586Z,3.70
2018-01-30T20:42:57.166Z,5.12
2018-01-30T20:45:24.653Z,10.13
2018-01-30T20:47:52.150Z,5.53
2018-01-30T20:50:19.698Z,3.90
2018-01-30T20:52:47.202Z,8.05
2018-01-30T20:55:14.712Z,8.18
2018-01-30T20:57:42.235Z,7.25
2018-01-30T21:00:09.728Z,7.05
2018-01-30T21:02:37.203Z,7.50
2018-01-30T21:05:04.710Z,6.30
2018-01-30T21:07:32.207Z,11.52
2018-01-30T21:09:59.686Z,8.55
2018-01-30T21:12:27.170Z,5.75
2018-01-30T21:14:54.703Z,12.35
2018-01-30T21:17:22.203Z,11.95
2018-01-30T21:19:49.695Z,7.80
2018-01-30T21:22:17.203Z,6.50
2018-01-30T21:24:44.703Z,9.85
2018-01-30T21:27:12.206Z,7.80
2018-01-30T21:29:39.750Z,16.08
2018-01-30T21:32:07.315Z,9.43
2018-01-30T21:34:34.847Z,11.90
2018-01-30T21:37:02.335Z,17.95
2018-01-30T21:39:29.845Z,8.52
2018-01-30T21:41:57.343Z,8.48
2018-01-30T21:44:24.835Z,6.35
2018-01-30T21:46:52.339Z,13.75
2018-01-30T21:49:19.842Z,7.75
2018-01-30T21:51:47.370Z,8.98
2018-01-30T21:54:18.431Z,7.78
2018-01-30T21:56:42.363Z,8.85
2018-01-30T21:59:09.871Z,6.60
2018-01-30T22:01:37.386Z,3.53
2018-01-30T22:04:04.863Z,6.18
2018-01-30T22:06:32.344Z,6.62
2018-01-30T22:08:59.868Z,5.43
2018-01-30T22:11:27.363Z,4.43
2018-01-30T22:13:54.866Z,6.68
2018-01-30T22:16:22.383Z,4.45
2018-01-30T22:18:49.934Z,5.35
2018-01-30T22:21:17.434Z,6.78
2018-01-30T22:23:44.930Z,6.82
2018-01-30T22:26:12.442Z,15.00
2018-01-30T22:28:39.933Z,17.77
2018-01-30T22:31:07.414Z,16.65
2018-01-30T22:33:34.924Z,15.82
2018-01-30T22:36:02.427Z,13.13
2018-01-30T22:38:29.922Z,11.07
2018-01-30T22:40:57.415Z,17.77
2018-01-30T22:43:24.918Z,9.05
2018-01-30T22:45:52.415Z,16.60
